sensor_id;sensor_type;location;lat;lon;timestamp;P1;durP1;ratioP1;P2;durP2;ratioP2
18172;SDS011;9211;48.818;9.312;2023-07-08T00:00:13;10.98;;;6.43;;
18172;SDS011;9211;48.818;9.312;2023-07-08T00:02:46;11.48;;;6.38;;
18172;SDS011;9211;48.818;9.312;2023-07-08T00:05:14;11.77;;;6.30;;
18172;SDS011;9211;48.818;9.312;2023-07-08T00:07:44;10.40;;;6.20;;
18172;SDS011;9211;48.818;9.312;2023-07-08T00:10:12;10.40;;;6.20;;
18172;SDS011;9211;48.818;9.312;2023-07-08T00:12:41;10.85;;;6.22;;
18172;SDS011;9211;48.818;9.312;2023-07-08T00:15:10;10.93;;;6.60;;
18172;SDS011;9211;48.818;9.312;2023-07-08T00:17:37;11.68;;;6.30;;
18172;SDS011;9211;48.818;9.312;2023-07-08T00:20:09;10.18;;;6.47;;
18172;SDS011;9211;48.818;9.312;2023-07-08T00:22:39;11.43;;;6.30;;
18172;SDS011;9211;48.818;9.312;2023-07-08T00:25:07;9.18;;;6.00;;
18172;SDS011;9211;48.818;9.312;2023-07-08T00:27:34;12.40;;;6.50;;
18172;SDS011;9211;48.818;9.312;2023-07-08T00:30:01;11.90;;;6.47;;
18172;SDS011;9211;48.818;9.312;2023-07-08T00:32:36;12.10;;;6.13;;
18172;SDS011;9211;48.818;9.312;2023-07-08T00:35:07;11.55;;;6.20;;
18172;SDS011;9211;48.818;9.312;2023-07-08T00:37:34;11.23;;;6.68;;
18172;SDS011;9211;48.818;9.312;2023-07-08T00:40:01;10.43;;;6.23;;
18172;SDS011;9211;48.818;9.312;2023-07-08T00:42:37;11.65;;;6.15;;
18172;SDS011;9211;48.818;9.312;2023-07-08T00:45:06;10.77;;;6.40;;
18172;SDS011;9211;48.818;9.312;2023-07-08T00:47:49;12.25;;;6.38;;
18172;SDS011;9211;48.818;9.312;2023-07-08T00:50:18;10.48;;;6.45;;
18172;SDS011;9211;48.818;9.312;2023-07-08T00:52:46;10.15;;;5.70;;
18172;SDS011;9211;48.818;9.312;2023-07-08T00:55:14;10.85;;;6.30;;
18172;SDS011;9211;48.818;9.312;2023-07-08T00:57:41;10.90;;;6.30;;
18172;SDS011;9211;48.818;9.312;2023-07-08T01:00:14;11.05;;;6.03;;
18172;SDS011;9211;48.818;9.312;2023-07-08T01:02:45;12.68;;;6.30;;
18172;SDS011;9211;48.818;9.312;2023-07-08T01:05:17;11.45;;;6.50;;
18172;SDS011;9211;48.818;9.312;2023-07-08T01:07:46;11.00;;;6.55;;
18172;SDS011;9211;48.818;9.312;2023-07-08T01:10:18;11.32;;;6.50;;
18172;SDS011;9211;48.818;9.312;2023-07-08T01:12:50;12.38;;;6.18;;
18172;SDS011;9211;48.818;9.312;2023-07-08T01:15:20;11.82;;;6.72;;
18172;SDS011;9211;48.818;9.312;2023-07-08T01:17:49;11.23;;;6.37;;
18172;SDS011;9211;48.818;9.312;2023-07-08T01:20:19;11.38;;;6.50;;
18172;SDS011;9211;48.818;9.312;2023-07-08T01:22:48;12.63;;;6.95;;
18172;SDS011;9211;48.818;9.312;2023-07-08T01:25:15;13.53;;;6.90;;
18172;SDS011;9211;48.818;9.312;2023-07-08T01:27:43;12.57;;;6.68;;
18172;SDS011;9211;48.818;9.312;2023-07-08T01:30:14;12.88;;;6.75;;
18172;SDS011;9211;48.818;9.312;2023-07-08T01:32:43;11.50;;;6.40;;
18172;SDS011;9211;48.818;9.312;2023-07-08T01:35:14;11.48;;;6.68;;
18172;SDS011;9211;48.818;9.312;2023-07-08T01:37:43;10.85;;;6.63;;
18172;SDS011;9211;48.818;9.312;2023-07-08T01:40:19;12.02;;;6.72;;
18172;SDS011;9211;48.818;9.312;2023-07-08T01:42:51;12.05;;;6.72;;
18172;SDS011;9211;48.818;9.312;2023-07-08T01:45:19;12.07;;;6.80;;
18172;SDS011;9211;48.818;9.312;2023-07-08T01:47:49;14.15;;;6.70;;
18172;SDS011;9211;48.818;9.312;2023-07-08T01:50:19;12.95;;;6.82;;
18172;SDS011;9211;48.818;9.312;2023-07-08T01:52:48;11.10;;;6.70;;
18172;SDS011;9211;48.818;9.312;2023-07-08T01:55:21;14.07;;;6.93;;
18172;SDS011;9211;48.818;9.312;2023-07-08T01:57:50;12.07;;;6.60;;
18172;SDS011;9211;48.818;9.312;2023-07-08T02:02:54;12.50;;;6.78;;
18172;SDS011;9211;48.818;9.312;2023-07-08T02:05:22;13.10;;;6.60;;
18172;SDS011;9211;48.818;9.312;2023-07-08T02:07:49;12.30;;;6.53;;
18172;SDS011;9211;48.818;9.312;2023-07-08T02:10:16;13.23;;;6.77;;
18172;SDS011;9211;48.818;9.312;2023-07-08T02:12:44;13.35;;;6.80;;
18172;SDS011;9211;48.818;9.312;2023-07-08T02:15:11;14.03;;;7.10;;
18172;SDS011;9211;48.818;9.312;2023-07-08T02:17:38;11.60;;;7.10;;
18172;SDS011;9211;48.818;9.312;2023-07-08T02:20:05;12.35;;;6.82;;
18172;SDS011;9211;48.818;9.312;2023-07-08T02:22:34;13.57;;;6.97;;
18172;SDS011;9211;48.818;9.312;2023-07-08T02:25:02;13.45;;;6.85;;
18172;SDS011;9211;48.818;9.312;2023-07-08T02:27:30;11.15;;;6.47;;
18172;SDS011;9211;48.818;9.312;2023-07-08T02:29:58;13.55;;;6.78;;
18172;SDS011;9211;48.818;9.312;2023-07-08T02:32:25;11.10;;;6.43;;
18172;SDS011;9211;48.818;9.312;2023-07-08T02:34:52;13.27;;;7.13;;
18172;SDS011;9211;48.818;9.312;2023-07-08T02:37:19;12.38;;;6.88;;
18172;SDS011;9211;48.818;9.312;2023-07-08T02:39:46;13.55;;;6.72;;
18172;SDS011;9211;48.818;9.312;2023-07-08T02:42:13;11.75;;;6.18;;
18172;SDS011;9211;48.818;9.312;2023-07-08T02:44:41;12.00;;;6.72;;
18172;SDS011;9211;48.818;9.312;2023-07-08T02:47:10;13.45;;;6.63;;
18172;SDS011;9211;48.818;9.312;2023-07-08T02:49:37;13.77;;;6.38;;
18172;SDS011;9211;48.818;9.312;2023-07-08T02:52:04;11.25;;;6.53;;
18172;SDS011;9211;48.818;9.312;2023-07-08T02:54:31;11.52;;;6.70;;
18172;SDS011;9211;48.818;9.312;2023-07-08T02:56:58;13.13;;;7.10;;
18172;SDS011;9211;48.818;9.312;2023-07-08T02:59:25;11.63;;;6.47;;
18172;SDS011;9211;48.818;9.312;2023-07-08T03:01:53;14.23;;;6.75;;
18172;SDS011;9211;48.818;9.312;2023-07-08T03:04:21;12.20;;;6.88;;
18172;SDS011;9211;48.818;9.312;2023-07-08T03:06:51;11.70;;;6.43;;
18172;SDS011;9211;48.818;9.312;2023-07-08T03:09:18;12.88;;;6.90;;
18172;SDS011;9211;48.818;9.312;2023-07-08T03:11:45;12.65;;;6.88;;
18172;SDS011;9211;48.818;9.312;2023-07-08T03:14:12;10.95;;;6.53;;
18172;SDS011;9211;48.818;9.312;2023-07-08T03:16:39;11.80;;;6.93;;
18172;SDS011;9211;48.818;9.312;2023-07-08T03:19:06;12.03;;;6.60;;
18172;SDS011;9211;48.818;9.312;2023-07-08T03:21:41;12.05;;;6.57;;
18172;SDS011;9211;48.818;9.312;2023-07-08T03:24:09;12.95;;;6.72;;
18172;SDS011;9211;48.818;9.312;2023-07-08T03:26:40;11.13;;;6.50;;
18172;SDS011;9211;48.818;9.312;2023-07-08T03:29:07;12.95;;;6.57;;
18172;SDS011;9211;48.818;9.312;2023-07-08T03:31:40;12.27;;;6.65;;
18172;SDS011;9211;48.818;9.312;2023-07-08T03:34:08;12.82;;;6.80;;
18172;SDS011;9211;48.818;9.312;2023-07-08T03:36:36;10.77;;;6.07;;
18172;SDS011;9211;48.818;9.312;2023-07-08T03:39:14;12.57;;;7.13;;
18172;SDS011;9211;48.818;9.312;2023-07-08T03:41:42;13.00;;;7.30;;
18172;SDS011;9211;48.818;9.312;2023-07-08T03:44:09;12.63;;;6.85;;
18172;SDS011;9211;48.818;9.312;2023-07-08T03:46:37;12.90;;;6.80;;
18172;SDS011;9211;48.818;9.312;2023-07-08T03:49:05;11.77;;;6.68;;
18172;SDS011;9211;48.818;9.312;2023-07-08T03:51:33;12.10;;;6.60;;
18172;SDS011;9211;48.818;9.312;2023-07-08T03:54:04;12.85;;;6.85;;
18172;SDS011;9211;48.818;9.312;2023-07-08T03:56:34;14.40;;;7.00;;
18172;SDS011;9211;48.818;9.312;2023-07-08T03:59:02;12.00;;;6.57;;
18172;SDS011;9211;48.818;9.312;2023-07-08T04:01:30;12.63;;;6.70;;
18172;SDS011;9211;48.818;9.312;2023-07-08T04:03:58;14.77;;;6.63;;
18172;SDS011;9211;48.818;9.312;2023-07-08T04:06:25;10.57;;;6.35;;
18172;SDS011;9211;48.818;9.312;2023-07-08T04:08:54;11.13;;;6.47;;
18172;SDS011;9211;48.818;9.312;2023-07-08T04:11:22;12.57;;;7.00;;
18172;SDS011;9211;48.818;9.312;2023-07-08T04:13:50;12.77;;;6.95;;
18172;SDS011;9211;48.818;9.312;2023-07-08T04:16:18;12.23;;;7.07;;
18172;SDS011;9211;48.818;9.312;2023-07-08T04:18:47;12.15;;;6.55;;
18172;SDS011;9211;48.818;9.312;2023-07-08T04:21:16;11.70;;;6.63;;
18172;SDS011;9211;48.818;9.312;2023-07-08T04:23:43;12.60;;;6.75;;
18172;SDS011;9211;48.818;9.312;2023-07-08T04:26:10;13.45;;;6.88;;
18172;SDS011;9211;48.818;9.312;2023-07-08T04:28:39;14.77;;;7.28;;
18172;SDS011;9211;48.818;9.312;2023-07-08T04:31:06;12.95;;;7.03;;
18172;SDS011;9211;48.818;9.312;2023-07-08T04:33:33;13.50;;;6.70;;
18172;SDS011;9211;48.818;9.312;2023-07-08T04:36:00;11.85;;;6.78;;
18172;SDS011;9211;48.818;9.312;2023-07-08T04:38:27;12.20;;;7.07;;
18172;SDS011;9211;48.818;9.312;2023-07-08T04:40:54;14.30;;;7.17;;
18172;SDS011;9211;48.818;9.312;2023-07-08T04:43:22;12.38;;;6.70;;
18172;SDS011;9211;48.818;9.312;2023-07-08T04:45:56;13.90;;;6.70;;
18172;SDS011;9211;48.818;9.312;2023-07-08T04:48:23;11.93;;;6.50;;
18172;SDS011;9211;48.818;9.312;2023-07-08T04:50:51;14.82;;;6.85;;
18172;SDS011;9211;48.818;9.312;2023-07-08T04:53:19;12.52;;;6.78;;
18172;SDS011;9211;48.818;9.312;2023-07-08T04:55:46;13.32;;;6.75;;
18172;SDS011;9211;48.818;9.312;2023-07-08T04:58:16;11.13;;;6.78;;
18172;SDS011;9211;48.818;9.312;2023-07-08T05:00:43;12.00;;;6.90;;
18172;SDS011;9211;48.818;9.312;2023-07-08T05:03:11;10.38;;;6.28;;
18172;SDS011;9211;48.818;9.312;2023-07-08T05:05:38;11.98;;;6.68;;
18172;SDS011;9211;48.818;9.312;2023-07-08T05:08:05;11.35;;;6.50;;
18172;SDS011;9211;48.818;9.312;2023-07-08T05:10:33;12.52;;;6.53;;
18172;SDS011;9211;48.818;9.312;2023-07-08T05:13:00;10.63;;;6.32;;
18172;SDS011;9211;48.818;9.312;2023-07-08T05:15:27;11.10;;;6.60;;
18172;SDS011;9211;48.818;9.312;2023-07-08T05:17:54;10.98;;;6.32;;
18172;SDS011;9211;48.818;9.312;2023-07-08T05:20:22;13.10;;;6.70;;
18172;SDS011;9211;48.818;9.312;2023-07-08T05:22:49;12.10;;;6.53;;
18172;SDS011;9211;48.818;9.312;2023-07-08T05:25:17;11.93;;;6.78;;
18172;SDS011;9211;48.818;9.312;2023-07-08T05:27:45;12.13;;;6.72;;
18172;SDS011;9211;48.818;9.312;2023-07-08T05:30:13;10.82;;;6.43;;
18172;SDS011;9211;48.818;9.312;2023-07-08T05:32:42;11.32;;;6.50;;
18172;SDS011;9211;48.818;9.312;2023-07-08T05:35:10;14.00;;;6.60;;
18172;SDS011;9211;48.818;9.312;2023-07-08T05:37:38;12.63;;;6.47;;
18172;SDS011;9211;48.818;9.312;2023-07-08T05:40:06;11.07;;;6.53;;
18172;SDS011;9211;48.818;9.312;2023-07-08T05:42:34;11.95;;;6.78;;
18172;SDS011;9211;48.818;9.312;2023-07-08T05:45:01;9.55;;;5.60;;
18172;SDS011;9211;48.818;9.312;2023-07-08T05:47:29;14.32;;;6.38;;
18172;SDS011;9211;48.818;9.312;2023-07-08T05:49:56;8.95;;;5.72;;
18172;SDS011;9211;48.818;9.312;2023-07-08T05:52:23;10.45;;;6.20;;
18172;SDS011;9211;48.818;9.312;2023-07-08T05:54:51;9.75;;;5.63;;
18172;SDS011;9211;48.818;9.312;2023-07-08T05:57:18;11.50;;;6.18;;
18172;SDS011;9211;48.818;9.312;2023-07-08T05:59:45;10.88;;;6.07;;
18172;SDS011;9211;48.818;9.312;2023-07-08T06:02:12;11.47;;;6.20;;
18172;SDS011;9211;48.818;9.312;2023-07-08T06:04:39;11.07;;;6.00;;
18172;SDS011;9211;48.818;9.312;2023-07-08T06:07:06;9.70;;;5.60;;
18172;SDS011;9211;48.818;9.312;2023-07-08T06:09:33;9.50;;;5.68;;
18172;SDS011;9211;48.818;9.312;2023-07-08T06:12:02;10.00;;;5.80;;
18172;SDS011;9211;48.818;9.312;2023-07-08T06:14:29;9.82;;;6.25;;
18172;SDS011;9211;48.818;9.312;2023-07-08T06:16:57;9.18;;;5.70;;
18172;SDS011;9211;48.818;9.312;2023-07-08T06:19:24;9.48;;;5.93;;
18172;SDS011;9211;48.818;9.312;2023-07-08T06:21:51;10.20;;;5.88;;
18172;SDS011;9211;48.818;9.312;2023-07-08T06:24:26;9.20;;;6.00;;
18172;SDS011;9211;48.818;9.312;2023-07-08T06:26:53;10.47;;;6.00;;
18172;SDS011;9211;48.818;9.312;2023-07-08T06:29:21;10.68;;;6.20;;
18172;SDS011;9211;48.818;9.312;2023-07-08T06:31:48;12.43;;;6.40;;
18172;SDS011;9211;48.818;9.312;2023-07-08T06:34:15;10.23;;;6.13;;
18172;SDS011;9211;48.818;9.312;2023-07-08T06:36:42;11.00;;;6.35;;
18172;SDS011;9211;48.818;9.312;2023-07-08T06:39:09;11.30;;;6.38;;
18172;SDS011;9211;48.818;9.312;2023-07-08T06:41:36;10.23;;;6.35;;
18172;SDS011;9211;48.818;9.312;2023-07-08T06:44:03;10.02;;;5.90;;
18172;SDS011;9211;48.818;9.312;2023-07-08T06:46:32;10.57;;;6.20;;
18172;SDS011;9211;48.818;9.312;2023-07-08T06:49:00;9.95;;;5.82;;
18172;SDS011;9211;48.818;9.312;2023-07-08T06:51:27;11.20;;;6.35;;
18172;SDS011;9211;48.818;9.312;2023-07-08T06:53:54;9.98;;;6.00;;
18172;SDS011;9211;48.818;9.312;2023-07-08T06:56:21;10.63;;;5.95;;
18172;SDS011;9211;48.818;9.312;2023-07-08T06:58:48;12.70;;;6.53;;
18172;SDS011;9211;48.818;9.312;2023-07-08T07:01:15;9.85;;;6.28;;
18172;SDS011;9211;48.818;9.312;2023-07-08T07:03:43;9.88;;;6.05;;
18172;SDS011;9211;48.818;9.312;2023-07-08T07:06:10;9.98;;;6.00;;
18172;SDS011;9211;48.818;9.312;2023-07-08T07:08:37;10.85;;;5.90;;
18172;SDS011;9211;48.818;9.312;2023-07-08T07:11:04;9.65;;;6.10;;
18172;SDS011;9211;48.818;9.312;2023-07-08T07:13:31;9.90;;;6.00;;
18172;SDS011;9211;48.818;9.312;2023-07-08T07:15:59;10.70;;;6.22;;
18172;SDS011;9211;48.818;9.312;2023-07-08T07:18:26;13.15;;;5.50;;
18172;SDS011;9211;48.818;9.312;2023-07-08T07:20:54;10.25;;;5.20;;
18172;SDS011;9211;48.818;9.312;2023-07-08T07:23:21;9.00;;;4.95;;
18172;SDS011;9211;48.818;9.312;2023-07-08T07:25:48;9.32;;;4.80;;
18172;SDS011;9211;48.818;9.312;2023-07-08T07:28:16;9.63;;;4.70;;
18172;SDS011;9211;48.818;9.312;2023-07-08T07:30:43;8.88;;;4.90;;
18172;SDS011;9211;48.818;9.312;2023-07-08T07:33:10;8.88;;;4.32;;
18172;SDS011;9211;48.818;9.312;2023-07-08T07:35:41;9.10;;;4.78;;
18172;SDS011;9211;48.818;9.312;2023-07-08T07:38:10;10.55;;;4.95;;
18172;SDS011;9211;48.818;9.312;2023-07-08T07:40:38;7.97;;;4.73;;
18172;SDS011;9211;48.818;9.312;2023-07-08T07:43:05;9.30;;;4.88;;
18172;SDS011;9211;48.818;9.312;2023-07-08T07:45:32;8.75;;;4.90;;
18172;SDS011;9211;48.818;9.312;2023-07-08T07:48:00;9.48;;;5.28;;
18172;SDS011;9211;48.818;9.312;2023-07-08T07:50:27;8.63;;;4.77;;
18172;SDS011;9211;48.818;9.312;2023-07-08T07:52:54;7.82;;;4.63;;
18172;SDS011;9211;48.818;9.312;2023-07-08T07:55:22;7.75;;;4.68;;
18172;SDS011;9211;48.818;9.312;2023-07-08T07:57:49;8.40;;;4.93;;
18172;SDS011;9211;48.818;9.312;2023-07-08T08:00:16;8.05;;;4.70;;
18172;SDS011;9211;48.818;9.312;2023-07-08T08:02:43;8.70;;;5.13;;
18172;SDS011;9211;48.818;9.312;2023-07-08T08:05:10;8.10;;;4.68;;
18172;SDS011;9211;48.818;9.312;2023-07-08T08:07:38;8.30;;;4.55;;
18172;SDS011;9211;48.818;9.312;2023-07-08T08:10:06;8.32;;;4.50;;
18172;SDS011;9211;48.818;9.312;2023-07-08T08:12:35;13.73;;;8.10;;
18172;SDS011;9211;48.818;9.312;2023-07-08T08:15:02;8.77;;;4.95;;
18172;SDS011;9211;48.818;9.312;2023-07-08T08:17:29;9.00;;;4.60;;
18172;SDS011;9211;48.818;9.312;2023-07-08T08:19:56;7.03;;;4.40;;
18172;SDS011;9211;48.818;9.312;2023-07-08T08:22:23;7.72;;;4.13;;
18172;SDS011;9211;48.818;9.312;2023-07-08T08:24:50;10.63;;;4.80;;
18172;SDS011;9211;48.818;9.312;2023-07-08T08:27:17;7.07;;;3.92;;
18172;SDS011;9211;48.818;9.312;2023-07-08T08:29:45;10.13;;;4.60;;
18172;SDS011;9211;48.818;9.312;2023-07-08T08:32:12;8.95;;;4.65;;
18172;SDS011;9211;48.818;9.312;2023-07-08T08:34:39;7.45;;;4.43;;
18172;SDS011;9211;48.818;9.312;2023-07-08T08:37:07;8.95;;;4.78;;
18172;SDS011;9211;48.818;9.312;2023-07-08T08:39:34;8.07;;;4.80;;
18172;SDS011;9211;48.818;9.312;2023-07-08T08:42:01;9.27;;;4.88;;
18172;SDS011;9211;48.818;9.312;2023-07-08T08:44:31;8.93;;;4.53;;
18172;SDS011;9211;48.818;9.312;2023-07-08T08:47:02;7.70;;;4.38;;
18172;SDS011;9211;48.818;9.312;2023-07-08T08:49:37;9.18;;;4.18;;
18172;SDS011;9211;48.818;9.312;2023-07-08T08:52:08;9.20;;;4.03;;
18172;SDS011;9211;48.818;9.312;2023-07-08T08:54:36;8.43;;;3.87;;
18172;SDS011;9211;48.818;9.312;2023-07-08T08:57:06;8.67;;;3.87;;
18172;SDS011;9211;48.818;9.312;2023-07-08T08:59:41;7.63;;;3.70;;
18172;SDS011;9211;48.818;9.312;2023-07-08T09:02:22;8.82;;;3.95;;
18172;SDS011;9211;48.818;9.312;2023-07-08T09:04:55;7.97;;;4.13;;
18172;SDS011;9211;48.818;9.312;2023-07-08T09:07:28;7.97;;;4.30;;
18172;SDS011;9211;48.818;9.312;2023-07-08T09:10:01;9.82;;;5.93;;
18172;SDS011;9211;48.818;9.312;2023-07-08T09:12:30;9.50;;;5.53;;
18172;SDS011;9211;48.818;9.312;2023-07-08T09:15:00;14.48;;;8.98;;
18172;SDS011;9211;48.818;9.312;2023-07-08T09:17:39;7.47;;;4.00;;
18172;SDS011;9211;48.818;9.312;2023-07-08T09:20:09;8.43;;;3.70;;
18172;SDS011;9211;48.818;9.312;2023-07-08T09:22:44;6.57;;;3.13;;
18172;SDS011;9211;48.818;9.312;2023-07-08T09:25:20;6.50;;;3.10;;
18172;SDS011;9211;48.818;9.312;2023-07-08T09:27:50;6.20;;;3.22;;
18172;SDS011;9211;48.818;9.312;2023-07-08T09:30:18;6.63;;;3.03;;
18172;SDS011;9211;48.818;9.312;2023-07-08T09:32:48;6.72;;;3.20;;
18172;SDS011;9211;48.818;9.312;2023-07-08T09:35:19;6.75;;;3.13;;
18172;SDS011;9211;48.818;9.312;2023-07-08T09:37:48;6.22;;;3.03;;
18172;SDS011;9211;48.818;9.312;2023-07-08T09:40:16;7.75;;;3.55;;
18172;SDS011;9211;48.818;9.312;2023-07-08T09:42:46;6.57;;;3.25;;
18172;SDS011;9211;48.818;9.312;2023-07-08T09:45:17;8.40;;;3.50;;
18172;SDS011;9211;48.818;9.312;2023-07-08T09:47:46;5.70;;;3.20;;
18172;SDS011;9211;48.818;9.312;2023-07-08T09:50:18;5.28;;;2.70;;
18172;SDS011;9211;48.818;9.312;2023-07-08T09:52:47;6.93;;;2.65;;
18172;SDS011;9211;48.818;9.312;2023-07-08T09:55:15;4.53;;;2.33;;
18172;SDS011;9211;48.818;9.312;2023-07-08T09:57:43;5.03;;;2.30;;
18172;SDS011;9211;48.818;9.312;2023-07-08T10:00:12;5.18;;;2.60;;
18172;SDS011;9211;48.818;9.312;2023-07-08T10:02:42;5.47;;;2.60;;
18172;SDS011;9211;48.818;9.312;2023-07-08T10:05:14;5.50;;;2.65;;
18172;SDS011;9211;48.818;9.312;2023-07-08T10:07:44;4.30;;;2.40;;
18172;SDS011;9211;48.818;9.312;2023-07-08T10:10:13;5.57;;;2.40;;
18172;SDS011;9211;48.818;9.312;2023-07-08T10:12:46;5.10;;;2.53;;
18172;SDS011;9211;48.818;9.312;2023-07-08T10:15:22;4.15;;;2.42;;
18172;SDS011;9211;48.818;9.312;2023-07-08T10:17:53;5.53;;;2.75;;
18172;SDS011;9211;48.818;9.312;2023-07-08T10:20:21;6.90;;;3.30;;
18172;SDS011;9211;48.818;9.312;2023-07-08T10:22:54;5.47;;;3.40;;
18172;SDS011;9211;48.818;9.312;2023-07-08T10:25:33;6.10;;;3.50;;
18172;SDS011;9211;48.818;9.312;2023-07-08T10:28:07;6.28;;;3.53;;
18172;SDS011;9211;48.818;9.312;2023-07-08T10:30:50;8.68;;;3.95;;
18172;SDS011;9211;48.818;9.312;2023-07-08T10:33:31;13.50;;;9.68;;
18172;SDS011;9211;48.818;9.312;2023-07-08T10:36:13;25.50;;;17.73;;
18172;SDS011;9211;48.818;9.312;2023-07-08T10:38:50;9.63;;;5.25;;
18172;SDS011;9211;48.818;9.312;2023-07-08T10:41:26;8.40;;;4.05;;
18172;SDS011;9211;48.818;9.312;2023-07-08T10:44:04;10.63;;;4.00;;
18172;SDS011;9211;48.818;9.312;2023-07-08T10:46:40;7.53;;;3.63;;
18172;SDS011;9211;48.818;9.312;2023-07-08T10:52:31;6.03;;;3.50;;
18172;SDS011;9211;48.818;9.312;2023-07-08T10:55:18;10.50;;;3.70;;
18172;SDS011;9211;48.818;9.312;2023-07-08T11:01:02;6.47;;;3.00;;
18172;SDS011;9211;48.818;9.312;2023-07-08T11:03:48;6.10;;;3.10;;
18172;SDS011;9211;48.818;9.312;2023-07-08T11:06:34;7.22;;;2.90;;
18172;SDS011;9211;48.818;9.312;2023-07-08T11:09:12;7.45;;;2.50;;
18172;SDS011;9211;48.818;9.312;2023-07-08T11:11:43;5.68;;;2.72;;
18172;SDS011;9211;48.818;9.312;2023-07-08T11:14:16;5.28;;;2.78;;
18172;SDS011;9211;48.818;9.312;2023-07-08T11:16:47;6.33;;;2.70;;
18172;SDS011;9211;48.818;9.312;2023-07-08T11:19:21;4.50;;;2.50;;
18172;SDS011;9211;48.818;9.312;2023-07-08T11:21:53;12.33;;;8.37;;
18172;SDS011;9211;48.818;9.312;2023-07-08T11:24:26;17.63;;;11.32;;
18172;SDS011;9211;48.818;9.312;2023-07-08T11:26:58;7.05;;;3.22;;
18172;SDS011;9211;48.818;9.312;2023-07-08T11:29:34;6.38;;;2.55;;
18172;SDS011;9211;48.818;9.312;2023-07-08T11:32:05;5.13;;;2.38;;
18172;SDS011;9211;48.818;9.312;2023-07-08T11:34:38;5.05;;;2.10;;
18172;SDS011;9211;48.818;9.312;2023-07-08T11:37:08;3.85;;;2.22;;
18172;SDS011;9211;48.818;9.312;2023-07-08T11:39:41;3.72;;;2.40;;
18172;SDS011;9211;48.818;9.312;2023-07-08T11:42:12;5.10;;;2.33;;
18172;SDS011;9211;48.818;9.312;2023-07-08T11:44:43;4.50;;;2.35;;
18172;SDS011;9211;48.818;9.312;2023-07-08T11:47:18;3.72;;;2.20;;
18172;SDS011;9211;48.818;9.312;2023-07-08T11:49:47;4.88;;;2.25;;
18172;SDS011;9211;48.818;9.312;2023-07-08T11:52:17;4.65;;;2.42;;
18172;SDS011;9211;48.818;9.312;2023-07-08T11:54:48;4.50;;;2.10;;
18172;SDS011;9211;48.818;9.312;2023-07-08T11:57:23;4.75;;;2.05;;
18172;SDS011;9211;48.818;9.312;2023-07-08T12:00:06;5.32;;;2.30;;
18172;SDS011;9211;48.818;9.312;2023-07-08T12:02:47;6.05;;;2.30;;
18172;SDS011;9211;48.818;9.312;2023-07-08T12:05:16;4.00;;;2.10;;
18172;SDS011;9211;48.818;9.312;2023-07-08T12:07:44;4.40;;;2.10;;
18172;SDS011;9211;48.818;9.312;2023-07-08T12:10:15;5.20;;;2.25;;
18172;SDS011;9211;48.818;9.312;2023-07-08T12:12:44;4.35;;;2.05;;
18172;SDS011;9211;48.818;9.312;2023-07-08T12:15:13;3.57;;;2.03;;
18172;SDS011;9211;48.818;9.312;2023-07-08T12:17:47;4.78;;;2.20;;
18172;SDS011;9211;48.818;9.312;2023-07-08T12:20:19;4.80;;;1.90;;
18172;SDS011;9211;48.818;9.312;2023-07-08T12:22:49;3.67;;;1.75;;
18172;SDS011;9211;48.818;9.312;2023-07-08T12:25:18;3.33;;;1.83;;
18172;SDS011;9211;48.818;9.312;2023-07-08T12:27:47;3.10;;;1.60;;
18172;SDS011;9211;48.818;9.312;2023-07-08T12:30:15;2.72;;;1.70;;
18172;SDS011;9211;48.818;9.312;2023-07-08T12:32:43;4.50;;;1.77;;
18172;SDS011;9211;48.818;9.312;2023-07-08T12:35:15;3.75;;;1.85;;
18172;SDS011;9211;48.818;9.312;2023-07-08T12:37:47;3.67;;;2.00;;
18172;SDS011;9211;48.818;9.312;2023-07-08T12:40:14;2.65;;;1.70;;
18172;SDS011;9211;48.818;9.312;2023-07-08T12:42:42;3.47;;;2.00;;
18172;SDS011;9211;48.818;9.312;2023-07-08T12:45:12;3.50;;;1.77;;
18172;SDS011;9211;48.818;9.312;2023-07-08T12:47:41;3.38;;;1.80;;
18172;SDS011;9211;48.818;9.312;2023-07-08T12:50:09;2.80;;;1.80;;
18172;SDS011;9211;48.818;9.312;2023-07-08T12:52:37;3.15;;;1.70;;
18172;SDS011;9211;48.818;9.312;2023-07-08T12:55:05;3.10;;;1.80;;
18172;SDS011;9211;48.818;9.312;2023-07-08T12:57:34;4.47;;;2.05;;
18172;SDS011;9211;48.818;9.312;2023-07-08T13:00:03;4.13;;;1.90;;
18172;SDS011;9211;48.818;9.312;2023-07-08T13:02:31;4.20;;;1.95;;
18172;SDS011;9211;48.818;9.312;2023-07-08T13:04:59;3.67;;;1.85;;
18172;SDS011;9211;48.818;9.312;2023-07-08T13:07:32;4.88;;;1.75;;
18172;SDS011;9211;48.818;9.312;2023-07-08T13:10:02;4.53;;;1.92;;
18172;SDS011;9211;48.818;9.312;2023-07-08T13:12:31;4.37;;;2.00;;
18172;SDS011;9211;48.818;9.312;2023-07-08T13:15:04;5.85;;;1.98;;
18172;SDS011;9211;48.818;9.312;2023-07-08T13:17:36;4.03;;;2.07;;
18172;SDS011;9211;48.818;9.312;2023-07-08T13:20:04;2.78;;;1.50;;
18172;SDS011;9211;48.818;9.312;2023-07-08T13:22:32;4.22;;;1.80;;
18172;SDS011;9211;48.818;9.312;2023-07-08T13:24:59;4.15;;;2.08;;
18172;SDS011;9211;48.818;9.312;2023-07-08T13:27:28;4.38;;;1.88;;
18172;SDS011;9211;48.818;9.312;2023-07-08T13:29:56;3.85;;;1.92;;
18172;SDS011;9211;48.818;9.312;2023-07-08T13:32:37;6.30;;;2.20;;
18172;SDS011;9211;48.818;9.312;2023-07-08T13:35:04;4.60;;;2.20;;
18172;SDS011;9211;48.818;9.312;2023-07-08T13:37:46;5.47;;;2.20;;
18172;SDS011;9211;48.818;9.312;2023-07-08T13:40:15;4.53;;;2.00;;
18172;SDS011;9211;48.818;9.312;2023-07-08T13:42:46;3.80;;;1.90;;
18172;SDS011;9211;48.818;9.312;2023-07-08T13:45:15;5.07;;;1.87;;
18172;SDS011;9211;48.818;9.312;2023-07-08T13:47:47;6.18;;;2.05;;
18172;SDS011;9211;48.818;9.312;2023-07-08T13:50:25;4.10;;;2.00;;
18172;SDS011;9211;48.818;9.312;2023-07-08T13:52:57;5.72;;;1.98;;
18172;SDS011;9211;48.818;9.312;2023-07-08T13:55:25;4.03;;;1.90;;
18172;SDS011;9211;48.818;9.312;2023-07-08T13:57:57;4.95;;;2.00;;
18172;SDS011;9211;48.818;9.312;2023-07-08T14:00:26;3.97;;;1.90;;
18172;SDS011;9211;48.818;9.312;2023-07-08T14:02:57;3.85;;;1.70;;
18172;SDS011;9211;48.818;9.312;2023-07-08T14:05:24;3.67;;;2.00;;
18172;SDS011;9211;48.818;9.312;2023-07-08T14:07:51;4.10;;;1.80;;
18172;SDS011;9211;48.818;9.312;2023-07-08T14:10:19;6.10;;;2.00;;
18172;SDS011;9211;48.818;9.312;2023-07-08T14:12:46;6.05;;;2.30;;
18172;SDS011;9211;48.818;9.312;2023-07-08T14:15:13;4.85;;;1.92;;
18172;SDS011;9211;48.818;9.312;2023-07-08T14:17:40;4.68;;;2.10;;
18172;SDS011;9211;48.818;9.312;2023-07-08T14:20:10;4.70;;;1.65;;
18172;SDS011;9211;48.818;9.312;2023-07-08T14:22:38;4.07;;;2.05;;
18172;SDS011;9211;48.818;9.312;2023-07-08T14:25:07;5.68;;;2.33;;
18172;SDS011;9211;48.818;9.312;2023-07-08T14:27:35;5.50;;;2.08;;
18172;SDS011;9211;48.818;9.312;2023-07-08T14:30:02;4.45;;;2.08;;
18172;SDS011;9211;48.818;9.312;2023-07-08T14:32:31;5.10;;;2.08;;
18172;SDS011;9211;48.818;9.312;2023-07-08T14:34:59;5.72;;;2.10;;
18172;SDS011;9211;48.818;9.312;2023-07-08T14:37:29;5.22;;;2.20;;
18172;SDS011;9211;48.818;9.312;2023-07-08T14:39:58;5.07;;;2.25;;
18172;SDS011;9211;48.818;9.312;2023-07-08T14:42:25;4.30;;;2.10;;
18172;SDS011;9211;48.818;9.312;2023-07-08T14:44:53;5.65;;;2.10;;
18172;SDS011;9211;48.818;9.312;2023-07-08T14:47:22;5.60;;;2.15;;
18172;SDS011;9211;48.818;9.312;2023-07-08T14:49:50;5.00;;;2.08;;
18172;SDS011;9211;48.818;9.312;2023-07-08T14:52:17;6.22;;;2.28;;
18172;SDS011;9211;48.818;9.312;2023-07-08T14:54:47;3.97;;;2.10;;
18172;SDS011;9211;48.818;9.312;2023-07-08T14:57:15;3.58;;;2.20;;
18172;SDS011;9211;48.818;9.312;2023-07-08T14:59:53;6.32;;;3.00;;
18172;SDS011;9211;48.818;9.312;2023-07-08T15:02:20;8.90;;;6.50;;
18172;SDS011;9211;48.818;9.312;2023-07-08T15:04:48;14.85;;;11.05;;
18172;SDS011;9211;48.818;9.312;2023-07-08T15:07:18;7.18;;;3.30;;
18172;SDS011;9211;48.818;9.312;2023-07-08T15:09:47;5.53;;;2.30;;
18172;SDS011;9211;48.818;9.312;2023-07-08T15:12:15;4.70;;;2.07;;
18172;SDS011;9211;48.818;9.312;2023-07-08T15:14:42;4.50;;;2.10;;
18172;SDS011;9211;48.818;9.312;2023-07-08T15:17:10;5.13;;;2.10;;